createdAt,value
2023-02-13T00:00:50.121Z,7.78
2023-02-13T00:03:13.795Z,6.88
2023-02-13T00:05:37.444Z,6.72
2023-02-13T00:08:01.063Z,6.68
2023-02-13T00:10:24.755Z,6.32
2023-02-13T00:12:49.734Z,6.20
2023-02-13T00:15:13.487Z,5.68
2023-02-13T00:17:37.652Z,6.18
2023-02-13T00:20:01.364Z,5.13
2023-02-13T00:22:25.407Z,4.88
2023-02-13T00:24:49.134Z,4.30
2023-02-13T00:27:12.785Z,3.78
2023-02-13T00:29:37.882Z,3.85
2023-02-13T00:32:02.037Z,3.50
2023-02-13T00:34:25.746Z,3.53
2023-02-13T00:36:49.343Z,3.08
2023-02-13T00:39:14.217Z,3.58
2023-02-13T00:41:37.887Z,3.13
2023-02-13T00:44:01.603Z,2.83
2023-02-13T00:46:29.261Z,3.20
2023-02-13T00:48:52.940Z,2.90
2023-02-13T00:51:16.669Z,2.90
2023-02-13T00:53:40.820Z,2.78
2023-02-13T00:56:06.288Z,2.58
2023-02-13T00:58:29.995Z,2.40
2023-02-13T01:00:56.160Z,2.25
2023-02-13T01:03:23.446Z,2.60
2023-02-13T01:05:47.713Z,2.53
2023-02-13T01:08:12.243Z,2.60
2023-02-13T01:10:35.846Z,3.08
2023-02-13T01:12:59.526Z,2.90
2023-02-13T01:15:24.475Z,2.58
2023-02-13T01:17:48.203Z,2.63
2023-02-13T01:20:15.135Z,2.88
2023-02-13T01:22:38.838Z,3.08
2023-02-13T01:25:02.569Z,2.85
2023-02-13T01:27:29.741Z,3.42
2023-02-13T01:29:53.335Z,2.90
2023-02-13T01:32:17.002Z,3.10
2023-02-13T01:34:41.968Z,3.20
2023-02-13T01:37:09.398Z,3.05
2023-02-13T01:39:33.162Z,3.45
2023-02-13T01:41:56.811Z,3.30
2023-02-13T01:44:54.151Z,3.40
2023-02-13T01:47:24.621Z,2.90
2023-02-13T01:49:48.969Z,3.15
2023-02-13T01:52:14.911Z,3.53
2023-02-13T01:54:38.661Z,3.72
2023-02-13T01:57:07.060Z,3.58
2023-02-13T01:59:36.952Z,3.75
2023-02-13T02:02:02.091Z,4.03
2023-02-13T02:04:31.261Z,3.75
2023-02-13T02:06:57.695Z,3.83
2023-02-13T02:09:31.862Z,4.07
2023-02-13T02:12:02.704Z,4.20
2023-02-13T02:14:28.611Z,3.47
2023-02-13T02:16:54.304Z,4.20
2023-02-13T02:19:33.879Z,3.75
2023-02-13T02:23:02.003Z,4.22
2023-02-13T02:26:22.090Z,3.72
2023-02-13T02:29:40.253Z,4.35
2023-02-13T02:32:30.000Z,4.00
2023-02-13T02:35:05.537Z,4.70
2023-02-13T02:37:53.306Z,4.80
2023-02-13T02:40:27.350Z,5.32
2023-02-13T02:43:09.632Z,4.90
2023-02-13T02:45:42.549Z,4.75
2023-02-13T02:48:37.290Z,5.15
2023-02-13T02:51:09.597Z,5.03
2023-02-13T02:53:40.691Z,5.55
2023-02-13T02:56:14.002Z,6.22
2023-02-13T02:59:02.005Z,5.93
2023-02-13T03:01:48.132Z,6.30
2023-02-13T03:04:35.550Z,6.30
2023-02-13T03:07:04.845Z,6.35
2023-02-13T03:09:50.831Z,6.65
2023-02-13T03:12:38.072Z,6.55
2023-02-13T03:15:01.786Z,6.75
2023-02-13T03:17:43.075Z,6.03
2023-02-13T03:20:42.364Z,6.40
2023-02-13T03:23:16.015Z,5.95
2023-02-13T03:25:59.686Z,6.75
2023-02-13T03:28:49.450Z,5.85
2023-02-13T03:31:23.650Z,5.90
2023-02-13T03:34:00.223Z,5.88
2023-02-13T03:36:52.993Z,5.82
2023-02-13T03:39:22.596Z,6.53
2023-02-13T03:41:55.862Z,6.30
2023-02-13T03:44:26.813Z,5.80
2023-02-13T03:46:53.592Z,6.45
2023-02-13T03:49:42.302Z,6.90
2023-02-13T03:52:12.884Z,6.15
2023-02-13T03:55:01.284Z,6.65
2023-02-13T03:57:44.495Z,6.85
2023-02-13T04:00:16.711Z,7.47
2023-02-13T04:02:55.842Z,7.55
2023-02-13T04:05:24.217Z,7.30
2023-02-13T04:07:50.199Z,7.85
2023-02-13T04:10:17.593Z,7.78
2023-02-13T04:12:52.324Z,8.13
2023-02-13T04:15:21.080Z,8.93
2023-02-13T04:17:49.802Z,8.43
2023-02-13T04:20:14.367Z,8.73
2023-02-13T04:22:44.810Z,8.80
2023-02-13T04:25:10.228Z,9.93
2023-02-13T04:27:33.906Z,9.45
2023-02-13T04:29:57.555Z,9.52
2023-02-13T04:32:21.189Z,10.00
2023-02-13T04:34:44.874Z,10.45
2023-02-13T04:37:08.480Z,10.50
2023-02-13T04:39:32.176Z,11.10
2023-02-13T04:41:57.222Z,10.27
2023-02-13T04:44:20.961Z,11.23
2023-02-13T04:46:44.546Z,10.90
2023-02-13T04:49:08.289Z,11.05
2023-02-13T04:51:31.929Z,11.48
2023-02-13T04:53:55.600Z,11.77
2023-02-13T04:56:20.072Z,12.07
2023-02-13T04:58:45.208Z,12.48
2023-02-13T05:01:14.415Z,12.27
2023-02-13T05:03:38.070Z,12.38
2023-02-13T05:06:01.657Z,13.20
2023-02-13T05:08:25.379Z,12.75
2023-02-13T05:10:49.648Z,12.57
2023-02-13T05:13:14.073Z,11.75
2023-02-13T05:15:39.139Z,11.65
2023-02-13T05:18:02.818Z,11.07
2023-02-13T05:20:26.542Z,11.20
2023-02-13T05:23:05.651Z,10.93
2023-02-13T05:25:29.314Z,10.52
2023-02-13T05:27:52.875Z,10.63
2023-02-13T05:30:16.069Z,10.20
2023-02-13T05:32:43.272Z,10.27
2023-02-13T05:35:07.752Z,10.07
2023-02-13T05:37:31.332Z,10.23
2023-02-13T05:39:54.979Z,9.65
2023-02-13T05:42:18.631Z,10.30
2023-02-13T05:44:42.282Z,10.32
2023-02-13T05:47:06.407Z,10.57
2023-02-13T05:49:31.541Z,11.02
2023-02-13T05:51:55.120Z,10.05
2023-02-13T05:54:19.090Z,9.75
2023-02-13T05:56:42.791Z,9.85
2023-02-13T05:59:06.458Z,9.93
2023-02-13T06:01:30.043Z,10.73
2023-02-13T06:03:53.729Z,10.27
2023-02-13T06:06:18.926Z,9.53
2023-02-13T06:08:42.562Z,10.55
2023-02-13T06:11:06.534Z,9.75
2023-02-13T06:13:30.139Z,9.40
2023-02-13T06:15:53.746Z,9.97
2023-02-13T06:18:17.407Z,9.65
2023-02-13T06:20:41.146Z,9.43
2023-02-13T06:23:06.693Z,9.60
2023-02-13T06:25:31.814Z,10.68
2023-02-13T06:27:55.485Z,9.70
2023-02-13T06:30:19.990Z,9.33
2023-02-13T06:32:43.917Z,9.55
2023-02-13T06:35:08.765Z,9.23
2023-02-13T06:37:32.439Z,9.97
2023-02-13T06:39:57.411Z,9.30
2023-02-13T06:42:21.072Z,9.50
2023-02-13T06:44:44.617Z,9.93
2023-02-13T06:47:08.449Z,9.85
2023-02-13T06:49:32.042Z,9.80
2023-02-13T06:51:55.701Z,9.23
2023-02-13T06:54:19.298Z,9.95
2023-02-13T06:56:44.373Z,9.80
2023-02-13T06:59:08.266Z,9.77
2023-02-13T07:01:32.887Z,10.25
2023-02-13T07:03:56.514Z,10.57
2023-02-13T07:06:20.643Z,9.50
2023-02-13T07:08:44.245Z,9.60
2023-02-13T07:11:07.890Z,9.50
2023-02-13T07:13:32.899Z,10.37
2023-02-13T07:15:58.134Z,9.57
2023-02-13T07:18:21.785Z,10.07
2023-02-13T07:20:45.435Z,9.57
2023-02-13T07:23:09.110Z,9.50
2023-02-13T07:25:33.151Z,9.82
2023-02-13T07:27:56.972Z,9.25
2023-02-13T07:30:22.787Z,8.93
2023-02-13T07:32:46.380Z,8.52
2023-02-13T07:35:10.258Z,8.85
2023-02-13T07:37:34.117Z,8.52
2023-02-13T07:39:57.778Z,9.32
2023-02-13T07:42:21.463Z,9.90
2023-02-13T07:44:45.196Z,9.02
2023-02-13T07:47:10.296Z,8.55
2023-02-13T07:49:34.429Z,8.60
2023-02-13T07:51:59.047Z,8.70
2023-02-13T07:54:23.015Z,8.63
2023-02-13T07:56:46.608Z,9.10
2023-02-13T07:59:11.228Z,8.77
2023-02-13T08:01:34.920Z,9.05
2023-02-13T08:04:00.150Z,8.77
2023-02-13T08:06:24.082Z,9.10
2023-02-13T08:08:47.898Z,8.63
2023-02-13T08:11:43.164Z,9.32
2023-02-13T08:14:06.824Z,8.77
2023-02-13T08:16:30.431Z,9.45
2023-02-13T08:18:54.178Z,9.65
2023-02-13T08:21:19.180Z,8.88
2023-02-13T08:23:43.627Z,8.80
2023-02-13T08:26:07.354Z,9.13
2023-02-13T08:28:31.635Z,8.63
2023-02-13T08:30:55.365Z,8.77
2023-02-13T08:33:19.126Z,8.57
2023-02-13T08:35:42.771Z,8.63
2023-02-13T08:38:09.004Z,8.40
2023-02-13T08:40:32.737Z,7.97
2023-02-13T08:43:02.402Z,8.88
2023-02-13T08:45:25.995Z,8.18
2023-02-13T08:47:49.646Z,8.10
2023-02-13T08:50:13.341Z,8.25
2023-02-13T08:52:37.285Z,8.57
2023-02-13T08:55:03.585Z,8.20
2023-02-13T08:57:27.330Z,7.83
2023-02-13T08:59:50.965Z,8.05
2023-02-13T09:02:14.880Z,8.50
2023-02-13T09:04:38.522Z,8.23
2023-02-13T09:07:02.112Z,8.25
2023-02-13T09:09:25.769Z,8.50
2023-02-13T09:11:51.717Z,8.30
2023-02-13T09:14:15.460Z,8.73
2023-02-13T09:16:39.154Z,8.68
2023-02-13T09:19:02.779Z,8.57
2023-02-13T09:21:26.433Z,8.70
2023-02-13T09:23:51.081Z,8.63
2023-02-13T09:26:18.589Z,9.27
2023-02-13T09:28:45.647Z,9.15
2023-02-13T09:31:10.755Z,8.90
2023-02-13T09:33:35.014Z,9.43
2023-02-13T09:35:58.930Z,9.18
2023-02-13T09:38:22.798Z,9.45
2023-02-13T09:40:51.816Z,9.10
2023-02-13T09:43:20.060Z,9.77
2023-02-13T09:45:48.477Z,9.68
2023-02-13T09:48:22.472Z,9.50
2023-02-13T09:50:46.251Z,9.82
2023-02-13T09:53:18.852Z,10.15
2023-02-13T09:55:53.060Z,10.75
2023-02-13T09:58:33.910Z,11.55
2023-02-13T10:01:03.523Z,10.02
2023-02-13T10:03:32.005Z,11.13
2023-02-13T10:06:07.771Z,10.15
2023-02-13T10:08:52.298Z,10.88
2023-02-13T10:11:35.468Z,11.13
2023-02-13T10:14:09.367Z,11.45
2023-02-13T10:16:39.740Z,11.30
2023-02-13T10:19:10.349Z,11.30
2023-02-13T10:21:39.923Z,11.10
2023-02-13T10:24:11.561Z,10.88
2023-02-13T10:26:45.947Z,11.93
2023-02-13T10:29:33.945Z,10.60
2023-02-13T10:32:05.705Z,10.88
2023-02-13T10:34:44.433Z,11.32
2023-02-13T10:37:15.757Z,10.73
2023-02-13T10:39:39.404Z,10.98
2023-02-13T10:42:10.413Z,11.82
2023-02-13T10:45:03.317Z,11.48
2023-02-13T10:47:48.614Z,11.27
2023-02-13T10:50:23.334Z,11.65
2023-02-13T10:52:59.599Z,11.75
2023-02-13T10:56:01.455Z,12.57
2023-02-13T10:58:40.575Z,11.55
2023-02-13T11:01:11.710Z,12.73
2023-02-13T11:03:36.838Z,13.13
2023-02-13T11:06:02.429Z,12.95
2023-02-13T11:08:35.433Z,13.07
2023-02-13T11:10:59.223Z,13.20
2023-02-13T11:13:25.319Z,14.57
2023-02-13T11:16:02.162Z,14.10
2023-02-13T11:18:29.074Z,13.52
2023-02-13T11:21:11.678Z,13.30
2023-02-13T11:23:44.052Z,14.05
2023-02-13T11:26:10.730Z,14.70
2023-02-13T11:28:38.824Z,14.07
2023-02-13T11:31:15.539Z,14.45
2023-02-13T11:33:39.515Z,14.23
2023-02-13T11:36:09.806Z,16.13
2023-02-13T11:38:33.583Z,15.50
2023-02-13T11:41:08.924Z,15.30
2023-02-13T11:43:37.063Z,14.23
2023-02-13T11:46:07.564Z,14.68
2023-02-13T11:48:31.365Z,14.45
2023-02-13T11:50:57.189Z,14.52
2023-02-13T11:53:25.627Z,14.15
2023-02-13T11:56:06.179Z,13.57
2023-02-13T11:58:31.970Z,15.07
2023-02-13T12:01:28.564Z,14.35
2023-02-13T12:04:05.882Z,14.63
2023-02-13T12:06:29.712Z,14.55
2023-02-13T12:08:54.732Z,15.05
2023-02-13T12:11:26.155Z,15.07
2023-02-13T12:13:51.681Z,14.88
2023-02-13T12:16:28.260Z,15.35
2023-02-13T12:18:57.525Z,13.60
2023-02-13T12:21:44.287Z,14.88
2023-02-13T12:24:21.972Z,14.20
2023-02-13T12:26:50.002Z,14.68
2023-02-13T12:30:01.845Z,12.88
2023-02-13T12:32:38.238Z,11.85
2023-02-13T12:35:57.065Z,14.00
2023-02-13T12:38:40.905Z,14.50
2023-02-13T12:41:19.752Z,14.40
2023-02-13T12:44:20.990Z,13.68
2023-02-13T12:46:58.443Z,12.80
2023-02-13T12:49:43.015Z,14.40
2023-02-13T12:52:26.944Z,14.05
2023-02-13T12:55:11.245Z,15.00
2023-02-13T12:57:54.284Z,14.88
2023-02-13T13:00:31.929Z,14.32
2023-02-13T13:03:25.465Z,14.30
2023-02-13T13:06:14.947Z,15.30
2023-02-13T13:09:14.045Z,14.27
2023-02-13T13:12:05.215Z,14.30
2023-02-13T13:14:42.559Z,15.38
2023-02-13T13:17:23.587Z,14.90
2023-02-13T13:19:55.447Z,14.98
2023-02-13T13:22:25.431Z,14.65
2023-02-13T13:25:04.154Z,15.50
2023-02-13T13:27:33.166Z,14.45
2023-02-13T13:30:03.132Z,15.15
2023-02-13T13:32:28.262Z,15.18
2023-02-13T13:34:52.030Z,14.88
2023-02-13T13:37:26.861Z,14.52
2023-02-13T13:39:57.299Z,14.57
2023-02-13T13:42:27.688Z,15.25
2023-02-13T13:45:25.548Z,14.27
2023-02-13T13:48:32.717Z,14.00
2023-02-13T13:50:58.368Z,14.52
2023-02-13T13:53:25.570Z,14.40
2023-02-13T13:56:09.848Z,13.63
2023-02-13T13:58:42.079Z,14.13
2023-02-13T14:01:29.414Z,14.30
2023-02-13T14:03:56.522Z,13.25
2023-02-13T14:06:22.557Z,13.98
2023-02-13T14:09:04.635Z,13.20
2023-02-13T14:11:43.115Z,11.85
2023-02-13T14:14:53.631Z,10.77
2023-02-13T14:17:55.113Z,13.77
2023-02-13T14:20:29.468Z,11.65
2023-02-13T14:22:53.188Z,14.02
2023-02-13T14:25:26.342Z,13.40
2023-02-13T14:27:59.938Z,14.63
2023-02-13T14:30:30.585Z,14.40
2023-02-13T14:32:55.878Z,13.45
2023-02-13T14:35:27.187Z,14.18
2023-02-13T14:37:53.491Z,14.45
2023-02-13T14:40:48.596Z,14.38
2023-02-13T14:43:36.802Z,13.70
2023-02-13T14:46:17.556Z,13.38
2023-02-13T14:48:48.864Z,13.93
2023-02-13T14:51:28.859Z,14.80
2023-02-13T14:53:56.761Z,14.40
2023-02-13T14:56:24.018Z,14.75
2023-02-13T14:58:53.170Z,15.48
2023-02-13T15:01:29.698Z,14.93
2023-02-13T15:04:01.885Z,14.18
2023-02-13T15:06:31.340Z,14.20
2023-02-13T15:08:55.434Z,14.27
2023-02-13T15:11:39.318Z,14.30
2023-02-13T15:14:32.689Z,15.73
2023-02-13T15:17:02.016Z,14.00
2023-02-13T15:19:28.444Z,21.48
2023-02-13T15:21:56.277Z,24.55
2023-02-13T15:24:24.066Z,15.48
2023-02-13T15:26:57.018Z,13.27
2023-02-13T15:29:29.405Z,13.80
2023-02-13T15:31:57.378Z,13.27
2023-02-13T15:34:29.608Z,15.90
2023-02-13T15:36:54.314Z,20.15
2023-02-13T15:39:20.477Z,19.17
2023-02-13T15:41:47.496Z,16.98
2023-02-13T15:44:19.713Z,29.25
2023-02-13T15:46:45.232Z,21.08
2023-02-13T15:49:15.639Z,16.95
2023-02-13T15:51:41.092Z,17.17
2023-02-13T15:54:08.127Z,14.00
2023-02-13T15:56:32.856Z,14.23
2023-02-13T15:58:57.438Z,14.60
2023-02-13T16:01:21.710Z,14.95
2023-02-13T16:03:48.119Z,15.10
2023-02-13T16:06:16.894Z,15.18
2023-02-13T16:08:46.536Z,14.55
2023-02-13T16:11:32.142Z,13.57
2023-02-13T16:14:08.187Z,30.08
2023-02-13T16:16:36.541Z,17.17
2023-02-13T16:19:00.412Z,17.73
2023-02-13T16:21:25.146Z,19.05
2023-02-13T16:23:50.319Z,15.98
2023-02-13T16:26:16.812Z,20.25
2023-02-13T16:28:40.935Z,17.15
2023-02-13T16:31:06.403Z,16.02
2023-02-13T16:33:31.980Z,28.27
2023-02-13T16:35:57.982Z,17.20
2023-02-13T16:38:34.756Z,24.88
2023-02-13T16:41:02.329Z,16.23
2023-02-13T16:43:44.964Z,16.25
2023-02-13T16:46:27.670Z,24.92
2023-02-13T16:49:05.746Z,22.10
2023-02-13T16:51:37.700Z,18.17
2023-02-13T16:54:03.812Z,26.73
2023-02-13T16:56:28.951Z,16.58
2023-02-13T16:58:53.899Z,37.53
2023-02-13T17:01:19.177Z,19.75
2023-02-13T17:03:43.190Z,18.00
2023-02-13T17:06:07.356Z,36.10
2023-02-13T17:08:32.703Z,35.75
2023-02-13T17:11:05.823Z,20.75
2023-02-13T17:13:31.160Z,17.13
2023-02-13T17:15:55.281Z,17.17
2023-02-13T17:18:19.113Z,16.63
2023-02-13T17:20:46.698Z,16.90
2023-02-13T17:23:18.558Z,17.10
2023-02-13T17:25:43.540Z,17.67
2023-02-13T17:28:14.950Z,17.52
2023-02-13T17:30:40.087Z,17.23
2023-02-13T17:33:07.890Z,15.55
2023-02-13T17:35:31.957Z,16.92
2023-02-13T17:37:55.635Z,15.88
2023-02-13T17:40:21.990Z,16.50
2023-02-13T17:42:47.166Z,15.55
2023-02-13T17:45:15.595Z,15.68
2023-02-13T17:47:40.682Z,15.55
2023-02-13T17:50:09.694Z,16.98
2023-02-13T17:52:34.504Z,16.25
2023-02-13T17:54:58.152Z,16.27
2023-02-13T17:57:21.751Z,15.98
2023-02-13T17:59:46.269Z,16.30
2023-02-13T18:02:18.493Z,18.30
2023-02-13T18:04:43.767Z,21.35
2023-02-13T18:07:07.617Z,17.50
2023-02-13T18:09:31.390Z,16.85
2023-02-13T18:12:05.091Z,18.42
2023-02-13T18:14:32.063Z,17.52
2023-02-13T18:16:55.686Z,17.98
2023-02-13T18:19:19.422Z,17.55
2023-02-13T18:21:44.409Z,19.63
2023-02-13T18:24:08.810Z,19.02
2023-02-13T18:26:32.442Z,19.67
2023-02-13T18:28:56.096Z,21.58
2023-02-13T18:31:20.004Z,19.27
2023-02-13T18:33:43.755Z,19.80
2023-02-13T18:36:08.205Z,18.83
2023-02-13T18:38:33.284Z,19.27
2023-02-13T18:40:57.784Z,19.85
2023-02-13T18:43:22.965Z,19.02
2023-02-13T18:45:47.965Z,18.67
2023-02-13T18:48:13.676Z,18.92
2023-02-13T18:50:41.572Z,20.08
2023-02-13T18:53:06.100Z,20.40
2023-02-13T18:55:31.178Z,19.35
2023-02-13T18:57:54.851Z,18.67
2023-02-13T19:00:22.308Z,20.65
2023-02-13T19:02:46.099Z,19.35
2023-02-13T19:05:10.138Z,21.77
2023-02-13T19:07:34.190Z,19.90
2023-02-13T19:09:57.798Z,20.30
2023-02-13T19:12:23.040Z,19.35
2023-02-13T19:14:47.832Z,20.55
2023-02-13T19:17:11.905Z,20.13
2023-02-13T19:19:35.526Z,20.23
2023-02-13T19:21:59.232Z,21.30
2023-02-13T19:24:22.844Z,20.48
2023-02-13T19:26:47.313Z,20.83
2023-02-13T19:29:12.515Z,19.83
2023-02-13T19:31:36.579Z,20.85
2023-02-13T19:34:00.913Z,19.90
2023-02-13T19:36:26.848Z,21.30
2023-02-13T19:38:56.191Z,20.48
2023-02-13T19:41:20.296Z,20.08
2023-02-13T19:43:49.963Z,20.58
2023-02-13T19:46:15.163Z,20.08
2023-02-13T19:48:39.090Z,20.50
2023-02-13T19:51:08.069Z,19.80
2023-02-13T19:53:31.998Z,19.92
2023-02-13T19:56:00.833Z,21.17
2023-02-13T19:58:24.523Z,20.70
2023-02-13T20:00:49.171Z,20.83
2023-02-13T20:03:14.194Z,20.63
2023-02-13T20:05:41.401Z,19.02
2023-02-13T20:08:05.340Z,19.67
2023-02-13T20:10:29.024Z,19.80
2023-02-13T20:12:55.104Z,19.88
2023-02-13T20:15:19.159Z,19.73
2023-02-13T20:17:42.781Z,19.48
2023-02-13T20:20:09.763Z,19.33
2023-02-13T20:22:33.392Z,18.70
2023-02-13T20:24:57.016Z,19.38
2023-02-13T20:27:20.653Z,19.38
2023-02-13T20:29:44.665Z,18.52
2023-02-13T20:32:08.758Z,18.35
2023-02-13T20:34:44.208Z,18.02
2023-02-13T20:37:17.669Z,19.00
2023-02-13T20:39:41.286Z,18.70
2023-02-13T20:42:05.178Z,18.92
2023-02-13T20:44:29.647Z,18.25
2023-02-13T20:46:54.920Z,18.48
2023-02-13T20:49:21.913Z,18.35
2023-02-13T20:51:45.871Z,18.80
2023-02-13T20:54:12.316Z,18.48
2023-02-13T20:56:36.153Z,17.73
2023-02-13T20:59:02.559Z,17.73
2023-02-13T21:01:29.702Z,18.73
2023-02-13T21:03:56.201Z,19.38
2023-02-13T21:06:20.344Z,19.15
2023-02-13T21:08:45.202Z,19.33
2023-02-13T21:11:10.578Z,18.67
2023-02-13T21:13:35.286Z,19.23
2023-02-13T21:16:06.946Z,18.63
2023-02-13T21:18:30.640Z,18.45
2023-02-13T21:20:55.193Z,18.75
2023-02-13T21:23:19.169Z,19.70
2023-02-13T21:25:42.786Z,18.87
2023-02-13T21:28:08.082Z,19.60
2023-02-13T21:30:31.887Z,20.10
2023-02-13T21:32:56.002Z,20.02
2023-02-13T21:35:19.883Z,19.65
2023-02-13T21:37:43.527Z,19.73
2023-02-13T21:40:09.469Z,20.40
2023-02-13T21:42:33.159Z,19.77
2023-02-13T21:44:58.148Z,20.23
2023-02-13T21:47:21.841Z,20.67
2023-02-13T21:49:45.526Z,20.45
2023-02-13T21:52:09.271Z,19.98
2023-02-13T21:54:32.969Z,21.15
2023-02-13T21:56:56.578Z,21.25
2023-02-13T21:59:20.214Z,20.40
2023-02-13T22:01:47.081Z,20.27
2023-02-13T22:04:11.778Z,21.95
2023-02-13T22:06:37.593Z,21.50
2023-02-13T22:09:03.559Z,20.92
2023-02-13T22:11:27.941Z,23.20
2023-02-13T22:13:55.654Z,21.67
2023-02-13T22:16:19.337Z,21.50
2023-02-13T22:18:48.158Z,21.65
2023-02-13T22:21:14.533Z,21.45
2023-02-13T22:23:38.763Z,21.88
2023-02-13T22:26:03.072Z,20.92
2023-02-13T22:28:26.775Z,21.70
2023-02-13T22:30:51.682Z,21.23
2023-02-13T22:33:15.755Z,20.15
2023-02-13T22:35:41.605Z,21.05
2023-02-13T22:38:05.328Z,21.15
2023-02-13T22:40:29.091Z,21.17
2023-02-13T22:42:53.581Z,20.77
2023-02-13T22:45:17.486Z,20.20
2023-02-13T22:47:41.078Z,19.80
2023-02-13T22:50:04.952Z,20.77
2023-02-13T22:52:29.971Z,20.42
2023-02-13T22:54:53.667Z,19.85
2023-02-13T22:57:17.320Z,20.20
2023-02-13T22:59:40.972Z,19.77
2023-02-13T23:02:05.313Z,21.07
2023-02-13T23:04:28.985Z,20.77
2023-02-13T23:06:52.589Z,20.88
2023-02-13T23:09:17.664Z,21.00
2023-02-13T23:11:58.728Z,20.00
2023-02-13T23:14:24.747Z,19.48
2023-02-13T23:17:05.609Z,20.50
2023-02-13T23:19:30.122Z,19.73
2023-02-13T23:21:53.776Z,19.02
2023-02-13T23:24:18.899Z,19.70
2023-02-13T23:26:42.522Z,19.70
2023-02-13T23:29:06.257Z,19.77
2023-02-13T23:31:29.982Z,19.38
2023-02-13T23:33:53.672Z,18.37
2023-02-13T23:36:17.269Z,19.27
2023-02-13T23:38:40.931Z,18.95
2023-02-13T23:41:10.142Z,20.13
2023-02-13T23:43:33.820Z,18.80
2023-02-13T23:45:57.448Z,19.27
2023-02-13T23:48:21.124Z,19.48
2023-02-13T23:50:44.815Z,18.60
2023-02-13T23:53:08.465Z,20.27
2023-02-13T23:55:32.066Z,18.95
2023-02-13T23:57:57.327Z,18.20
